createdAt,value
2023-01-25T00:01:11.589Z,96.72
2023-01-25T00:04:14.424Z,96.77
2023-01-25T00:07:16.936Z,96.83
2023-01-25T00:10:20.181Z,96.83
2023-01-25T00:13:23.102Z,96.86
2023-01-25T00:16:26.160Z,96.80
2023-01-25T00:19:28.881Z,96.64
2023-01-25T00:22:31.703Z,96.59
2023-01-25T00:25:34.332Z,96.54
2023-01-25T00:28:37.582Z,96.45
2023-01-25T00:32:23.388Z,96.32
2023-01-25T00:35:31.813Z,96.08
2023-01-25T00:38:35.253Z,95.87
2023-01-25T00:41:38.099Z,95.67
2023-01-25T00:44:40.728Z,95.36
2023-01-25T00:47:44.053Z,95.03
2023-01-25T00:50:46.458Z,94.81
2023-01-25T00:53:49.249Z,94.36
2023-01-25T00:56:56.673Z,94.18
2023-01-25T00:59:59.601Z,93.42
2023-01-25T01:03:02.006Z,93.03
2023-01-25T01:06:08.934Z,92.66
2023-01-25T01:09:16.989Z,92.26
2023-01-25T01:12:19.705Z,92.08
2023-01-25T01:15:22.161Z,91.72
2023-01-25T01:18:24.948Z,91.65
2023-01-25T01:21:28.241Z,91.55
2023-01-25T01:24:32.790Z,91.29
2023-01-25T01:27:35.325Z,91.13
2023-01-25T01:30:38.576Z,91.11
2023-01-25T01:33:41.410Z,90.91
2023-01-25T01:36:44.845Z,90.78
2023-01-25T01:39:47.336Z,90.46
2023-01-25T01:43:18.518Z,90.32
2023-01-25T01:46:21.665Z,89.76
2023-01-25T01:49:28.176Z,89.83
2023-01-25T01:52:36.848Z,89.65
2023-01-25T01:55:40.066Z,89.46
2023-01-25T01:58:44.833Z,89.29
2023-01-25T02:01:47.621Z,88.93
2023-01-25T02:04:51.853Z,88.94
2023-01-25T02:07:56.121Z,88.83
2023-01-25T02:11:00.915Z,88.92
2023-01-25T02:14:03.904Z,88.74
2023-01-25T02:17:06.760Z,88.61
2023-01-25T02:20:26.784Z,88.62
2023-01-25T02:23:52.814Z,88.57
2023-01-25T02:26:55.684Z,88.36
2023-01-25T02:29:59.163Z,88.53
2023-01-25T02:33:01.579Z,88.43
2023-01-25T02:36:07.164Z,88.49
2023-01-25T02:39:17.282Z,88.42
2023-01-25T02:42:21.279Z,88.49
2023-01-25T02:45:29.667Z,88.37
2023-01-25T02:48:32.437Z,88.02
2023-01-25T02:51:40.012Z,88.33
2023-01-25T02:54:42.856Z,88.06
2023-01-25T02:57:45.416Z,88.25
2023-01-25T03:00:48.416Z,87.94
2023-01-25T03:03:50.986Z,87.98
2023-01-25T03:06:53.928Z,87.64
2023-01-25T03:09:56.446Z,87.81
2023-01-25T03:13:00.006Z,87.57
2023-01-25T03:16:07.148Z,87.66
2023-01-25T03:19:11.054Z,87.36
2023-01-25T03:22:13.959Z,87.32
2023-01-25T03:25:16.785Z,87.30
2023-01-25T03:28:20.361Z,87.29
2023-01-25T03:31:24.867Z,87.08
2023-01-25T03:34:27.487Z,87.09
2023-01-25T03:37:31.479Z,87.17
2023-01-25T03:40:34.336Z,87.06
2023-01-25T03:43:37.214Z,87.03
2023-01-25T03:46:41.122Z,86.83
2023-01-25T03:49:43.924Z,86.84
2023-01-25T03:52:58.979Z,86.88
2023-01-25T03:56:10.810Z,86.46
2023-01-25T03:59:13.613Z,86.54
2023-01-25T04:02:16.465Z,86.79
2023-01-25T04:05:19.428Z,86.44
2023-01-25T04:08:23.504Z,86.48
2023-01-25T04:11:30.324Z,86.39
2023-01-25T04:14:44.067Z,86.38
2023-01-25T04:17:47.443Z,86.28
2023-01-25T04:20:54.218Z,86.48
2023-01-25T04:23:57.046Z,86.25
2023-01-25T04:26:59.741Z,86.08
2023-01-25T04:30:03.911Z,86.04
2023-01-25T04:33:08.348Z,86.08
2023-01-25T04:36:11.064Z,86.22
2023-01-25T04:39:13.836Z,86.11
2023-01-25T04:42:17.219Z,86.12
2023-01-25T04:45:21.854Z,85.95
2023-01-25T04:48:25.104Z,85.84
2023-01-25T04:51:29.648Z,85.87
2023-01-25T04:54:32.598Z,86.34
2023-01-25T04:57:35.362Z,85.62
2023-01-25T05:00:38.178Z,85.36
2023-01-25T05:03:40.835Z,84.64
2023-01-25T05:06:45.133Z,84.60
2023-01-25T05:09:48.473Z,84.91
2023-01-25T05:12:51.340Z,84.98
2023-01-25T05:15:56.720Z,85.07
2023-01-25T05:18:59.949Z,85.27
2023-01-25T05:22:07.537Z,85.12
2023-01-25T05:25:31.064Z,85.09
2023-01-25T05:28:34.543Z,84.83
2023-01-25T05:31:38.721Z,85.12
2023-01-25T05:34:41.622Z,85.56
2023-01-25T05:37:44.773Z,84.87
2023-01-25T05:40:49.393Z,84.19
2023-01-25T05:43:52.537Z,83.99
2023-01-25T05:46:55.613Z,84.25
2023-01-25T05:49:58.990Z,84.22
2023-01-25T05:53:02.894Z,84.11
2023-01-25T05:56:07.666Z,84.20
2023-01-25T05:59:12.094Z,83.93
2023-01-25T06:02:15.119Z,83.91
2023-01-25T06:05:18.436Z,83.96
2023-01-25T06:08:20.982Z,83.76
2023-01-25T06:11:25.148Z,84.08
2023-01-25T06:14:28.436Z,84.10
2023-01-25T06:17:31.435Z,83.84
2023-01-25T06:20:34.594Z,83.87
2023-01-25T06:23:40.382Z,83.88
2023-01-25T06:26:42.898Z,84.10
2023-01-25T06:29:45.740Z,83.74
2023-01-25T06:32:50.413Z,84.71
2023-01-25T06:35:53.222Z,82.93
2023-01-25T06:38:56.156Z,83.44
2023-01-25T06:41:59.156Z,82.21
2023-01-25T06:45:01.866Z,82.03
2023-01-25T06:48:05.031Z,81.57
2023-01-25T06:51:09.177Z,82.04
2023-01-25T06:54:11.945Z,82.10
2023-01-25T06:57:14.473Z,82.76
2023-01-25T07:00:17.902Z,82.31
2023-01-25T07:03:20.528Z,82.31
2023-01-25T07:06:25.035Z,82.50
2023-01-25T07:09:27.653Z,82.44
2023-01-25T07:12:30.707Z,82.06
2023-01-25T07:15:33.320Z,82.23
2023-01-25T07:18:37.718Z,82.13
2023-01-25T07:21:40.399Z,81.97
2023-01-25T07:24:49.868Z,81.86
2023-01-25T07:27:52.313Z,81.71
2023-01-25T07:30:55.339Z,81.48
2023-01-25T07:33:58.646Z,81.44
2023-01-25T07:37:01.497Z,81.14
2023-01-25T07:40:04.379Z,80.73
2023-01-25T07:43:07.250Z,80.75
2023-01-25T07:46:13.482Z,80.54
2023-01-25T07:49:16.764Z,80.11
2023-01-25T07:52:19.305Z,80.16
2023-01-25T07:55:22.289Z,79.84
2023-01-25T07:58:24.739Z,79.62
2023-01-25T08:01:29.227Z,79.28
2023-01-25T08:04:31.897Z,78.91
2023-01-25T08:07:34.403Z,79.00
2023-01-25T08:10:38.274Z,78.81
2023-01-25T08:13:41.883Z,78.54
2023-01-25T08:16:44.683Z,78.26
2023-01-25T08:19:47.154Z,77.39
2023-01-25T08:22:52.134Z,77.57
2023-01-25T08:25:54.735Z,77.25
2023-01-25T08:28:58.102Z,77.11
2023-01-25T08:32:04.500Z,76.49
2023-01-25T08:35:08.495Z,76.74
2023-01-25T08:38:11.360Z,76.72
2023-01-25T08:41:17.989Z,75.90
2023-01-25T08:44:24.075Z,76.00
2023-01-25T08:47:27.101Z,75.38
2023-01-25T08:50:29.483Z,74.78
2023-01-25T08:53:32.903Z,74.24
2023-01-25T08:56:38.421Z,74.11
2023-01-25T08:59:41.261Z,73.29
2023-01-25T09:02:43.903Z,72.97
2023-01-25T09:05:46.791Z,73.57
2023-01-25T09:08:49.436Z,72.54
2023-01-25T09:11:52.360Z,72.57
2023-01-25T09:14:54.843Z,72.72
2023-01-25T09:17:57.793Z,72.19
2023-01-25T09:21:05.952Z,71.86
2023-01-25T09:24:08.988Z,70.91
2023-01-25T09:27:11.730Z,70.04
2023-01-25T09:30:18.807Z,69.13
2023-01-25T09:33:34.600Z,68.11
2023-01-25T09:36:38.105Z,66.69
2023-01-25T09:39:40.610Z,65.94
2023-01-25T09:43:03.336Z,64.41
2023-01-25T09:46:20.289Z,66.46
2023-01-25T09:49:29.460Z,65.63
2023-01-25T09:52:56.525Z,65.89
2023-01-25T09:56:14.968Z,66.89
2023-01-25T09:59:23.109Z,66.03
2023-01-25T10:02:47.749Z,66.08
2023-01-25T10:05:57.997Z,66.26
2023-01-25T10:09:12.398Z,66.77
2023-01-25T10:12:20.785Z,67.33
2023-01-25T10:15:29.286Z,67.42
2023-01-25T10:18:52.991Z,66.48
2023-01-25T10:22:04.593Z,66.88
2023-01-25T10:25:23.362Z,67.29
2023-01-25T10:28:41.170Z,66.96
2023-01-25T10:31:55.484Z,66.99
2023-01-25T10:35:33.274Z,69.03
2023-01-25T10:38:46.368Z,70.01
2023-01-25T10:42:01.423Z,70.17
2023-01-25T10:45:12.052Z,68.24
2023-01-25T10:48:30.090Z,68.39
2023-01-25T10:51:35.603Z,68.37
2023-01-25T10:54:38.678Z,66.36
2023-01-25T10:57:53.491Z,68.16
2023-01-25T11:00:56.989Z,68.81
2023-01-25T11:04:01.589Z,69.00
2023-01-25T11:07:06.306Z,69.40
2023-01-25T11:10:29.295Z,68.42
2023-01-25T11:13:35.444Z,69.33
2023-01-25T11:16:40.565Z,68.97
2023-01-25T11:19:43.628Z,69.42
2023-01-25T11:22:56.743Z,70.42
2023-01-25T11:26:18.023Z,71.08
2023-01-25T11:29:24.293Z,71.82
2023-01-25T11:32:28.247Z,72.48
2023-01-25T11:35:33.527Z,73.89
2023-01-25T11:38:41.383Z,74.44
2023-01-25T11:42:32.263Z,74.89
2023-01-25T11:45:50.518Z,75.78
2023-01-25T11:49:02.380Z,76.45
2023-01-25T11:52:25.282Z,76.89
2023-01-25T11:55:39.515Z,77.13
2023-01-25T11:59:10.245Z,78.05
2023-01-25T12:03:01.422Z,78.37
2023-01-25T12:06:26.252Z,78.16
2023-01-25T12:09:55.017Z,78.23
2023-01-25T12:13:26.495Z,77.92
2023-01-25T12:16:44.877Z,78.54
2023-01-25T12:19:54.968Z,78.44
2023-01-25T12:23:22.398Z,79.27
2023-01-25T12:26:58.770Z,79.30
2023-01-25T12:30:04.531Z,79.32
2023-01-25T12:33:24.915Z,79.72
2023-01-25T12:36:34.043Z,80.01
2023-01-25T12:39:46.936Z,80.15
2023-01-25T12:42:54.204Z,80.83
2023-01-25T12:45:59.237Z,80.74
2023-01-25T12:49:13.914Z,81.24
2023-01-25T12:52:29.150Z,80.96
2023-01-25T12:55:31.903Z,81.27
2023-01-25T12:58:46.933Z,81.85
2023-01-25T13:02:01.443Z,81.49
2023-01-25T13:05:14.657Z,81.80
2023-01-25T13:08:36.260Z,81.71
2023-01-25T13:11:45.055Z,81.67
2023-01-25T13:14:47.540Z,82.67
2023-01-25T13:17:50.364Z,82.74
2023-01-25T13:20:57.235Z,84.07
2023-01-25T13:24:20.676Z,82.90
2023-01-25T13:27:28.838Z,82.10
2023-01-25T13:30:34.326Z,81.41
2023-01-25T13:33:37.221Z,81.05
2023-01-25T13:36:43.441Z,80.67
2023-01-25T13:39:56.340Z,81.07
2023-01-25T13:43:19.332Z,80.51
2023-01-25T13:46:25.649Z,80.00
2023-01-25T13:49:37.506Z,79.76
2023-01-25T13:52:55.687Z,79.52
2023-01-25T13:55:59.283Z,79.44
2023-01-25T13:59:02.538Z,79.26
2023-01-25T14:02:25.152Z,79.22
2023-01-25T14:05:27.943Z,80.16
2023-01-25T14:08:31.562Z,79.86
2023-01-25T14:11:39.934Z,80.32
2023-01-25T14:14:42.522Z,81.23
2023-01-25T14:17:45.872Z,81.79
2023-01-25T14:20:50.657Z,81.50
2023-01-25T14:23:53.683Z,81.31
2023-01-25T14:26:56.271Z,81.61
2023-01-25T14:29:59.164Z,81.41
2023-01-25T14:33:17.997Z,81.61
2023-01-25T14:36:25.676Z,82.03
2023-01-25T14:39:29.491Z,82.22
2023-01-25T14:42:32.743Z,82.37
2023-01-25T14:45:35.235Z,82.35
2023-01-25T14:48:41.331Z,82.66
2023-01-25T14:51:47.561Z,82.99
2023-01-25T14:54:53.642Z,83.28
2023-01-25T14:58:00.846Z,83.59
2023-01-25T15:01:04.272Z,83.75
2023-01-25T15:04:12.955Z,84.22
2023-01-25T15:07:41.849Z,84.64
2023-01-25T15:10:55.977Z,84.81
2023-01-25T15:14:05.967Z,85.08
2023-01-25T15:17:43.177Z,85.65
2023-01-25T15:20:49.637Z,85.77
2023-01-25T15:23:53.111Z,85.80
2023-01-25T15:26:56.497Z,85.87
2023-01-25T15:29:59.458Z,85.81
2023-01-25T15:33:02.434Z,86.19
2023-01-25T15:36:05.082Z,86.57
2023-01-25T15:39:14.379Z,86.57
2023-01-25T15:42:16.866Z,87.18
2023-01-25T15:45:19.672Z,87.04
2023-01-25T15:48:34.722Z,86.96
2023-01-25T15:51:37.582Z,87.05
2023-01-25T15:54:42.246Z,87.08
2023-01-25T15:57:48.845Z,87.17
2023-01-25T16:00:51.533Z,87.40
2023-01-25T16:03:59.073Z,87.46
2023-01-25T16:07:02.124Z,87.88
2023-01-25T16:10:05.193Z,87.88
2023-01-25T16:13:09.234Z,88.05
2023-01-25T16:16:18.892Z,88.23
2023-01-25T16:19:23.324Z,88.23
2023-01-25T16:22:26.044Z,88.33
2023-01-25T16:25:28.533Z,88.34
2023-01-25T16:28:31.389Z,88.39
2023-01-25T16:31:34.355Z,88.44
2023-01-25T16:34:37.261Z,88.58
2023-01-25T16:37:39.722Z,88.70
2023-01-25T16:40:42.593Z,88.70
2023-01-25T16:43:47.349Z,88.65
2023-01-25T16:46:50.621Z,88.72
2023-01-25T16:49:53.085Z,88.37
2023-01-25T16:52:56.423Z,88.36
2023-01-25T16:55:59.599Z,88.33
2023-01-25T16:59:05.313Z,88.43
2023-01-25T17:02:12.445Z,88.42
2023-01-25T17:05:15.407Z,88.68
2023-01-25T17:08:17.989Z,88.64
2023-01-25T17:11:22.089Z,88.39
2023-01-25T17:14:24.627Z,88.15
2023-01-25T17:17:29.887Z,88.12
2023-01-25T17:20:32.340Z,88.52
2023-01-25T17:23:36.535Z,88.04
2023-01-25T17:26:40.735Z,87.84
2023-01-25T17:29:43.552Z,87.93
2023-01-25T17:32:45.907Z,88.00
2023-01-25T17:35:48.666Z,88.67
2023-01-25T17:38:53.901Z,88.62
2023-01-25T17:41:56.606Z,88.67
2023-01-25T17:44:58.974Z,89.10
2023-01-25T17:48:01.628Z,89.02
2023-01-25T17:51:04.440Z,88.78
2023-01-25T17:54:07.649Z,88.82
2023-01-25T17:57:10.583Z,88.98
2023-01-25T18:00:13.910Z,88.69
2023-01-25T18:03:16.194Z,88.72
2023-01-25T18:06:21.426Z,88.51
2023-01-25T18:09:25.145Z,88.90
2023-01-25T18:12:28.680Z,88.90
2023-01-25T18:15:31.362Z,89.15
2023-01-25T18:18:34.281Z,89.14
2023-01-25T18:21:37.318Z,89.26
2023-01-25T18:24:40.777Z,89.19
2023-01-25T18:27:43.331Z,89.21
2023-01-25T18:30:52.963Z,89.30
2023-01-25T18:33:55.652Z,89.35
2023-01-25T18:36:59.434Z,89.42
2023-01-25T18:40:01.957Z,89.46
2023-01-25T18:43:04.859Z,89.53
2023-01-25T18:46:07.627Z,89.48
2023-01-25T18:49:10.635Z,89.52
2023-01-25T18:52:13.277Z,89.71
2023-01-25T18:55:15.998Z,89.70
2023-01-25T18:58:18.409Z,89.98
2023-01-25T19:01:23.047Z,90.02
2023-01-25T19:04:25.507Z,90.08
2023-01-25T19:07:28.332Z,90.12
2023-01-25T19:10:30.694Z,90.08
2023-01-25T19:13:34.702Z,90.22
2023-01-25T19:16:37.162Z,90.29
2023-01-25T19:19:40.952Z,90.36
2023-01-25T19:22:43.357Z,90.54
2023-01-25T19:25:45.996Z,90.57
2023-01-25T19:28:48.728Z,90.72
2023-01-25T19:31:51.444Z,90.80
2023-01-25T19:34:53.861Z,90.91
2023-01-25T19:37:57.014Z,91.08
2023-01-25T19:41:11.503Z,91.24
2023-01-25T19:44:14.685Z,91.28
2023-01-25T19:47:17.108Z,91.29
2023-01-25T19:50:19.888Z,91.35
2023-01-25T19:53:22.383Z,91.31
2023-01-25T19:56:26.268Z,91.51
2023-01-25T19:59:29.162Z,91.40
2023-01-25T20:02:32.585Z,91.56
2023-01-25T20:05:35.354Z,91.59
2023-01-25T20:08:40.725Z,91.74
2023-01-25T20:11:44.038Z,91.71
2023-01-25T20:14:46.844Z,91.72
2023-01-25T20:17:49.619Z,91.77
2023-01-25T20:20:57.043Z,91.55
2023-01-25T20:24:06.300Z,91.47
2023-01-25T20:27:08.913Z,91.62
2023-01-25T20:30:12.053Z,91.60
2023-01-25T20:33:16.539Z,91.55
2023-01-25T20:36:19.768Z,91.60
2023-01-25T20:39:23.114Z,91.68
2023-01-25T20:42:25.936Z,91.72
2023-01-25T20:45:28.650Z,91.54
2023-01-25T20:48:36.637Z,91.51
2023-01-25T20:51:39.988Z,91.29
2023-01-25T20:54:43.094Z,91.18
2023-01-25T20:57:45.540Z,91.18
2023-01-25T21:00:48.350Z,91.30
2023-01-25T21:03:54.472Z,91.44
2023-01-25T21:06:57.185Z,91.46
2023-01-25T21:09:59.557Z,91.52
2023-01-25T21:13:02.312Z,91.56
2023-01-25T21:16:15.356Z,91.66
2023-01-25T21:19:18.115Z,91.50
2023-01-25T21:22:20.544Z,91.46
2023-01-25T21:25:23.424Z,91.44
2023-01-25T21:28:26.481Z,91.51
2023-01-25T21:31:37.395Z,91.52
2023-01-25T21:34:39.866Z,91.45
2023-01-25T21:37:44.460Z,91.35
2023-01-25T21:40:47.499Z,91.32
2023-01-25T21:44:10.455Z,91.21
2023-01-25T21:47:29.298Z,91.03
2023-01-25T21:50:51.759Z,90.84
2023-01-25T21:53:54.311Z,90.65
2023-01-25T21:56:58.849Z,90.57
2023-01-25T22:00:02.076Z,90.48
2023-01-25T22:03:07.030Z,90.23
2023-01-25T22:06:09.731Z,90.13
2023-01-25T22:09:15.756Z,89.66
2023-01-25T22:12:18.559Z,89.57
2023-01-25T22:15:21.117Z,89.48
2023-01-25T22:18:23.959Z,89.40
2023-01-25T22:21:30.800Z,89.33
2023-01-25T22:24:33.719Z,89.25
2023-01-25T22:27:55.767Z,89.24
2023-01-25T22:30:58.534Z,89.45
2023-01-25T22:34:01.096Z,89.42
2023-01-25T22:37:03.799Z,89.51
2023-01-25T22:40:07.402Z,89.28
2023-01-25T22:43:10.185Z,89.35
2023-01-25T22:46:18.669Z,89.28
2023-01-25T22:49:21.407Z,89.26
2023-01-25T22:52:23.945Z,89.26
2023-01-25T22:55:26.725Z,89.20
2023-01-25T22:58:29.837Z,89.19
2023-01-25T23:01:34.892Z,89.22
2023-01-25T23:04:37.663Z,89.44
2023-01-25T23:07:40.522Z,89.33
2023-01-25T23:10:43.016Z,89.19
2023-01-25T23:14:05.204Z,88.84
2023-01-25T23:17:26.668Z,87.93
2023-01-25T23:20:30.027Z,87.99
2023-01-25T23:23:32.532Z,87.79
2023-01-25T23:26:39.249Z,87.47
2023-01-25T23:29:41.585Z,87.09
2023-01-25T23:32:49.402Z,86.95
2023-01-25T23:35:51.826Z,86.92
2023-01-25T23:38:55.502Z,86.72
2023-01-25T23:41:57.906Z,86.47
2023-01-25T23:45:00.680Z,86.10
2023-01-25T23:48:03.202Z,84.53
2023-01-25T23:51:06.039Z,84.16
2023-01-25T23:54:08.644Z,84.57
2023-01-25T23:57:11.443Z,84.65
